Time;durP1;ratioP1;P1;durP2;ratioP2;P2;SDS_P1;SDS_P2;PMS_P1;PMS_P2;Temp;Humidity;BMP_temperature;BMP_pressure;BME280_temperature;BME280_humidity;BME280_pressure;Samples;Min_cycle;Max_cycle;Signal;HPM_P1;HPM_P2
2022/11/11 00:01:15;;;;;;;37.05;5.72;;;;;;;15.29;100.00;101157.06;5078644;28;20079;-66
2022/11/11 00:03:42;;;;;;;40.05;5.95;;;;;;;15.13;100.00;101134.06;5060320;28;20028;-66
2022/11/11 00:06:15;;;;;;;45.47;5.70;;;;;;;15.23;100.00;101149.81;5068219;28;20102;-66
2022/11/11 00:08:41;;;;;;;39.22;6.22;;;;;;;15.26;100.00;101160.22;5084870;28;20544;-66
2022/11/11 00:11:11;;;;;;;46.97;6.22;;;;;;;15.28;100.00;101166.25;5076557;28;20040;-66
2022/11/11 00:13:38;;;;;;;44.05;6.28;;;;;;;15.29;100.00;101167.91;5089603;28;20497;-65
2022/11/11 00:16:13;;;;;;;42.47;5.80;;;;;;;15.30;100.00;101171.44;5079961;28;20024;-66
2022/11/11 00:27:11;;;;;;;36.90;5.15;;;;;;;15.32;100.00;101162.03;5077434;28;20089;-66
2022/11/11 00:29:37;;;;;;;42.05;5.90;;;;;;;15.28;100.00;101163.53;5088004;28;20510;-66
2022/11/11 00:37:32;;;;;;;36.67;5.88;;;;;;;15.35;100.00;101167.03;5088464;28;20039;-66
2022/11/11 00:40:01;;;;;;;38.22;5.55;;;;;;;15.35;100.00;101188.72;5078497;28;20036;-66
2022/11/11 00:42:26;;;;;;;45.20;6.85;;;;;;;15.37;100.00;101178.50;5081769;28;20036;-66
2022/11/11 00:44:52;;;;;;;40.40;6.38;;;;;;;15.37;100.00;101197.47;5084458;28;20055;-66
2022/11/11 00:52:50;;;;;;;39.15;6.20;;;;;;;15.44;100.00;101181.13;5085723;28;20039;-66
2022/11/11 00:55:15;;;;;;;39.92;6.40;;;;;;;15.37;100.00;101164.94;5074672;28;20407;-66
2022/11/11 00:57:41;;;;;;;39.92;6.25;;;;;;;15.35;100.00;101168.91;5089023;28;20043;-67
2022/11/11 01:00:07;;;;;;;42.95;6.65;;;;;;;15.34;100.00;101172.69;5077558;28;20437;-66
2022/11/11 01:02:35;;;;;;;40.13;6.22;;;;;;;15.43;100.00;101174.91;5097212;28;20116;-66
2022/11/11 01:05:00;;;;;;;38.47;5.70;;;;;;;15.43;100.00;101185.75;5086635;28;20084;-67
2022/11/11 01:07:26;;;;;;;46.35;6.25;;;;;;;15.43;100.00;101187.59;5075279;28;20072;-66
2022/11/11 01:09:51;;;;;;;36.63;5.82;;;;;;;15.42;100.00;101188.66;5068979;28;20119;-66
2022/11/11 01:12:17;;;;;;;44.72;6.53;;;;;;;15.42;100.00;101191.38;5079036;28;20032;-66
2022/11/11 01:14:45;;;;;;;41.55;6.00;;;;;;;15.45;100.00;101183.63;5078917;28;20031;-66
2022/11/11 01:17:11;;;;;;;40.70;5.70;;;;;;;15.45;100.00;101182.78;5086754;28;20496;-66
2022/11/11 01:19:36;;;;;;;36.47;5.80;;;;;;;15.46;100.00;101179.88;5075171;28;20028;-66
2022/11/11 01:22:02;;;;;;;40.15;6.22;;;;;;;15.38;100.00;101182.84;5085862;28;20058;-67
2022/11/11 01:24:27;;;;;;;41.28;7.03;;;;;;;15.46;100.00;101189.88;5080257;28;20107;-66
2022/11/11 01:26:53;;;;;;;35.70;5.57;;;;;;;15.47;100.00;101195.09;5078644;28;20521;-65
2022/11/11 01:29:18;;;;;;;39.08;6.25;;;;;;;15.44;100.00;101181.97;5087082;28;20071;-66
2022/11/11 01:31:44;;;;;;;41.95;6.20;;;;;;;15.48;100.00;101177.75;5075189;28;20099;-66
2022/11/11 01:34:09;;;;;;;42.20;6.53;;;;;;;15.45;100.00;101174.66;5083304;28;20368;-66
2022/11/11 01:36:34;;;;;;;42.97;6.40;;;;;;;15.21;100.00;101143.78;5081588;28;20494;-66
2022/11/11 01:39:00;;;;;;;39.83;6.47;;;;;;;15.44;100.00;101181.13;5076149;28;20035;-66
2022/11/11 01:41:32;;;;;;;45.30;6.88;;;;;;;15.44;100.00;101171.13;5087165;28;20032;-66
2022/11/11 01:44:02;;;;;;;40.22;6.22;;;;;;;15.36;100.00;101152.41;5077385;28;20027;-66
2022/11/11 01:46:33;;;;;;;42.75;6.28;;;;;;;15.47;100.00;101154.41;5082570;28;20040;-67
2022/11/11 01:49:23;;;;;;;39.83;6.53;;;;;;;15.50;100.00;101162.09;5085682;28;20039;-67
2022/11/11 01:51:58;;;;;;;43.28;7.07;;;;;;;15.38;100.00;101146.78;5059772;28;20024;-66
2022/11/11 01:54:33;;;;;;;46.83;6.55;;;;;;;15.49;100.00;101182.13;5082442;28;20024;-66
2022/11/11 01:57:19;;;;;;;47.97;6.93;;;;;;;15.34;100.00;101168.09;5085166;28;20509;-65
2022/11/11 01:59:49;;;;;;;37.67;5.80;;;;;;;15.47;100.00;101173.38;5058700;28;20406;-66
2022/11/11 02:02:24;;;;;;;50.83;7.07;;;;;;;15.48;100.00;101182.34;5103207;28;20035;-66
2022/11/11 02:07:36;;;;;;;43.30;6.45;;;;;;;15.31;100.00;101154.97;5094969;28;20073;-66
2022/11/11 02:10:09;;;;;;;43.03;7.00;;;;;;;15.23;100.00;101157.94;5087684;28;20070;-66
2022/11/11 02:15:18;;;;;;;40.53;6.82;;;;;;;15.42;100.00;101165.06;5095289;28;20451;-66
2022/11/11 02:17:47;;;;;;;37.63;6.18;;;;;;;15.46;100.00;101162.75;5108553;28;20119;-66
2022/11/11 02:20:14;;;;;;;48.05;7.60;;;;;;;15.48;100.00;101157.94;5080893;28;20508;-65
2022/11/11 02:23:13;;;;;;;50.83;8.20;;;;;;;15.52;100.00;101151.84;5100511;28;20036;-65
2022/11/11 02:25:44;;;;;;;43.63;6.35;;;;;;;15.49;100.00;101148.75;5061484;28;20044;-66
2022/11/11 02:28:10;;;;;;;40.38;6.80;;;;;;;15.44;100.00;101129.63;5104547;28;20043;-65
2022/11/11 02:30:36;;;;;;;41.53;6.50;;;;;;;15.46;100.00;101131.06;5090924;28;20526;-65
2022/11/11 02:33:01;;;;;;;44.47;7.25;;;;;;;15.50;100.00;101148.53;5105750;28;20115;-65
2022/11/11 02:35:33;;;;;;;41.03;6.68;;;;;;;15.60;100.00;101155.34;5076686;28;20460;-65
2022/11/11 02:38:06;;;;;;;38.30;6.78;;;;;;;15.55;100.00;101156.00;5106262;28;20024;-66
2022/11/11 02:40:38;;;;;;;38.78;6.25;;;;;;;15.57;100.00;101166.63;5101405;28;20023;-66
2022/11/11 02:43:04;;;;;;;47.65;7.07;;;;;;;15.54;100.00;101161.66;5097175;28;20040;-66
2022/11/11 02:45:30;;;;;;;45.65;7.03;;;;;;;15.55;100.00;101158.72;5108006;28;20513;-65
2022/11/11 02:47:55;;;;;;;46.20;7.80;;;;;;;15.56;100.00;101160.34;5095513;28;20035;-65
2022/11/11 02:50:21;;;;;;;44.45;7.00;;;;;;;15.52;100.00;101168.13;5084745;28;20043;-65
2022/11/11 02:52:46;;;;;;;52.00;7.85;;;;;;;15.39;100.00;101138.41;5102874;28;20042;-65
2022/11/11 02:55:14;;;;;;;47.47;7.43;;;;;;;15.54;100.00;101154.34;5057357;28;20526;-65
2022/11/11 02:57:39;;;;;;;42.35;7.63;;;;;;;15.59;100.00;101164.50;5106839;28;20050;-65
2022/11/11 03:00:08;;;;;;;46.58;6.82;;;;;;;15.52;100.00;101173.53;5078653;28;20506;-65
2022/11/11 03:02:33;;;;;;;45.15;6.80;;;;;;;15.28;100.00;101134.53;5100900;28;20067;-65
2022/11/11 03:04:58;;;;;;;52.80;7.95;;;;;;;15.43;100.00;101145.06;5086707;28;20093;-66
2022/11/11 03:07:24;;;;;;;44.05;7.78;;;;;;;15.54;100.00;101164.38;5042319;28;20036;-66
2022/11/11 03:09:50;;;;;;;45.58;6.80;;;;;;;15.57;100.00;101161.22;5106220;28;20526;-65
2022/11/11 03:12:16;;;;;;;45.50;6.93;;;;;;;15.58;100.00;101154.72;5063676;28;20042;-66
2022/11/11 03:14:41;;;;;;;45.35;6.72;;;;;;;15.50;100.00;101151.25;5083923;28;20050;-66
2022/11/11 03:19:51;;;;;;;52.23;7.10;;;;;;;15.54;100.00;101137.25;5083104;28;20473;-65
2022/11/11 03:22:17;;;;;;;49.78;7.38;;;;;;;15.55;100.00;101123.44;5071908;28;20272;-66
2022/11/11 03:27:26;;;;;;;38.72;6.97;;;;;;;15.56;100.00;101118.84;5097660;28;20047;-65
2022/11/11 03:29:51;;;;;;;42.40;6.50;;;;;;;15.55;100.00;101128.88;5091899;28;20027;-65
2022/11/11 03:32:17;;;;;;;47.00;7.65;;;;;;;15.50;100.00;101124.13;5101939;28;20143;-65
2022/11/11 03:34:42;;;;;;;35.67;6.43;;;;;;;15.57;100.00;101139.50;5102986;28;20043;-65
2022/11/11 03:39:53;;;;;;;49.65;6.60;;;;;;;15.54;100.00;101154.34;5083023;28;20033;-65
2022/11/11 03:42:19;;;;;;;49.42;6.82;;;;;;;15.62;100.00;101156.75;5105106;28;20115;-66
2022/11/11 03:44:44;;;;;;;48.15;7.88;;;;;;;15.60;100.00;101156.16;5103562;28;20066;-65
2022/11/11 03:47:10;;;;;;;43.47;7.20;;;;;;;15.63;100.00;101144.00;5078877;28;20039;-65
2022/11/11 03:49:36;;;;;;;43.00;6.85;;;;;;;15.64;100.00;101140.28;5108458;28;20027;-66
2022/11/11 03:52:01;;;;;;;34.75;6.65;;;;;;;15.45;100.00;101106.88;5079215;28;20036;-65
2022/11/11 03:54:26;;;;;;;42.42;6.70;;;;;;;15.64;100.00;101122.09;5085171;28;20487;-66
2022/11/11 03:57:29;;;;;;;51.65;7.45;;;;;;;15.66;100.00;101124.56;5106373;28;20031;-65
2022/11/11 03:59:37;;;;;;;40.67;7.57;;;;;;;15.64;100.00;101132.13;5096667;28;20502;-66
2022/11/11 04:10:23;;;;;;;45.05;7.65;;;;;;;15.68;100.00;101149.66;5091278;28;20075;-65
2022/11/11 04:21:41;;;;;;;40.35;6.25;;;;;;;15.69;100.00;101163.00;5091012;28;20157;-65
2022/11/11 04:23:49;;;;;;;50.20;7.63;;;;;;;15.74;100.00;101154.19;5065445;28;20054;-65
2022/11/11 04:26:14;;;;;;;49.88;7.50;;;;;;;15.76;100.00;101160.22;5087794;28;20111;-65
2022/11/11 04:31:23;;;;;;;36.60;6.90;;;;;;;15.73;100.00;101175.06;5096787;28;20063;-66
2022/11/11 04:33:49;;;;;;;50.20;7.25;;;;;;;15.77;100.00;101170.00;5109517;28;20055;-65
2022/11/11 04:36:14;;;;;;;33.40;5.97;;;;;;;15.74;100.00;101167.75;5081680;28;20036;-65
2022/11/11 04:41:23;;;;;;;45.10;7.43;;;;;;;15.85;100.00;101177.84;5109794;28;20058;-66
2022/11/11 04:46:33;;;;;;;43.05;6.75;;;;;;;15.88;100.00;101163.81;5073857;28;20051;-65
2022/11/11 04:48:59;;;;;;;49.15;8.20;;;;;;;15.64;100.00;101142.97;5087627;28;20039;-67
2022/11/11 04:52:25;;;;;;;44.13;7.45;;;;;;;15.76;100.00;101173.78;5077904;28;20046;-65
2022/11/11 04:54:09;;;;;;;48.50;7.70;;;;;;;15.76;100.00;101170.22;5084911;28;20043;-65
2022/11/11 04:56:47;;;;;;;38.28;5.93;;;;;;;15.71;100.00;101179.03;5085132;28;20065;-66
2022/11/11 04:59:15;;;;;;;44.00;5.90;;;;;;;15.65;100.00;101177.19;5107807;28;20051;-66
2022/11/11 05:04:25;;;;;;;33.50;6.05;;;;;;;15.45;100.00;101140.22;5089592;28;20043;-67
2022/11/11 05:09:34;;;;;;;35.60;6.45;;;;;;;15.55;100.00;101157.88;5096022;28;20043;-65
2022/11/11 05:11:59;;;;;;;30.52;5.22;;;;;;;15.49;100.00;101165.00;5107715;28;20031;-65
2022/11/11 05:22:42;;;;;;;32.38;5.22;;;;;;;15.42;100.00;101123.56;5086984;28;20053;-66
2022/11/11 05:25:25;;;;;;;25.75;4.97;;;;;;;15.37;100.00;101121.53;5098237;28;20133;-66
2022/11/11 05:27:52;;;;;;;25.30;4.88;;;;;;;15.34;100.00;101124.69;5108935;28;20031;-65
2022/11/11 05:30:18;;;;;;;21.25;4.30;;;;;;;15.30;100.00;101133.47;5099426;28;20032;-66
2022/11/11 05:32:45;;;;;;;22.90;4.25;;;;;;;15.31;100.00;101144.13;5101344;28;20613;-67
2022/11/11 05:35:12;;;;;;;25.58;4.70;;;;;;;15.28;100.00;101134.53;5106618;28;20032;-66
2022/11/11 05:37:37;;;;;;;25.73;4.93;;;;;;;15.25;100.00;101140.41;5076117;28;20047;-67
2022/11/11 05:40:03;;;;;;;30.55;5.40;;;;;;;15.26;100.00;101130.38;5106928;28;20027;-67
2022/11/11 05:42:31;;;;;;;30.65;5.00;;;;;;;15.26;100.00;101130.38;5082565;28;20505;-66
2022/11/11 05:44:57;;;;;;;24.58;4.70;;;;;;;15.24;100.00;101138.75;5099372;28;20069;-66
2022/11/11 05:47:23;;;;;;;25.90;4.22;;;;;;;15.21;100.00;101147.34;5089286;28;20042;-66
2022/11/11 05:49:48;;;;;;;26.60;4.47;;;;;;;15.07;100.00;101126.81;5095167;28;20028;-66
2022/11/11 05:52:15;;;;;;;21.90;4.10;;;;;;;15.26;100.00;101162.91;5087265;28;20040;-66
2022/11/11 05:54:40;;;;;;;27.63;4.93;;;;;;;15.35;100.00;101156.19;5101280;28;20027;-66
2022/11/11 05:57:06;;;;;;;18.13;3.42;;;;;;;15.28;100.00;101150.81;5098204;28;20508;-66
2022/11/11 05:59:31;;;;;;;22.15;4.75;;;;;;;15.32;100.00;101145.78;5108181;28;20031;-66
2022/11/11 06:01:57;;;;;;;19.48;3.92;;;;;;;15.30;100.00;101168.72;5077765;28;20101;-66
2022/11/11 06:04:24;;;;;;;25.98;4.93;;;;;;;15.35;100.00;101164.31;5104199;28;20035;-66
2022/11/11 06:06:50;;;;;;;24.70;5.55;;;;;;;15.27;100.00;101159.19;5103344;28;20494;-65
2022/11/11 06:09:15;;;;;;;28.27;4.82;;;;;;;15.27;100.00;101160.00;5087272;28;20047;-66
2022/11/11 06:11:41;;;;;;;31.73;5.53;;;;;;;15.23;100.00;101147.09;5054709;28;20036;-65
2022/11/11 06:14:06;;;;;;;22.15;4.50;;;;;;;15.26;100.00;101160.22;5074215;28;20066;-65
2022/11/11 06:16:32;;;;;;;28.27;5.35;;;;;;;15.26;100.00;101160.22;5089459;28;20042;-65
2022/11/11 06:18:58;;;;;;;25.02;4.90;;;;;;;15.19;100.00;101151.31;5075104;28;20032;-66
2022/11/11 06:24:37;;;;;;;26.27;4.60;;;;;;;15.06;100.00;101148.69;5025522;28;20057;-65
2022/11/11 06:27:03;;;;;;;28.52;5.28;;;;;;;15.12;100.00;101181.19;4992888;28;20049;-66
2022/11/11 06:29:28;;;;;;;25.35;4.57;;;;;;;14.98;100.00;101172.31;4992071;28;20137;-66
2022/11/11 06:31:53;;;;;;;25.60;4.75;;;;;;;15.13;100.00;101188.28;5031349;28;20055;-66
2022/11/11 06:34:19;;;;;;;35.25;5.90;;;;;;;15.22;100.00;101186.09;5035801;28;20560;-66
2022/11/11 06:36:44;;;;;;;20.77;4.55;;;;;;;15.18;100.00;101191.16;5005009;28;20132;-66
2022/11/11 06:39:10;;;;;;;28.23;5.50;;;;;;;14.99;100.00;101171.25;5042240;28;20476;-67
2022/11/11 06:41:35;;;;;;;36.20;6.38;;;;;;;15.16;100.00;101197.81;5029295;28;20092;-66
2022/11/11 06:44:00;;;;;;;33.63;6.45;;;;;;;15.08;100.00;101198.09;5033852;28;20033;-66
2022/11/11 06:46:26;;;;;;;32.92;6.30;;;;;;;15.18;100.00;101212.00;5013230;28;20053;-66
2022/11/11 06:48:51;;;;;;;44.20;7.18;;;;;;;15.17;100.00;101213.88;5041356;28;20459;-66
2022/11/11 06:51:17;;;;;;;29.23;5.32;;;;;;;15.20;100.00;101208.03;5020817;28;20129;-66
2022/11/11 06:53:43;;;;;;;45.03;7.05;;;;;;;15.26;100.00;101217.16;5088016;28;20050;-65
2022/11/11 06:56:11;;;;;;;33.83;5.85;;;;;;;15.20;100.00;101208.03;5081681;28;20051;-66
2022/11/11 06:58:37;;;;;;;41.67;6.80;;;;;;;15.22;100.00;101232.19;5103694;28;20030;-66
2022/11/11 07:01:07;;;;;;;47.17;7.93;;;;;;;15.28;100.00;101225.91;5105650;28;20051;-67
2022/11/11 07:03:33;;;;;;;37.60;6.10;;;;;;;15.22;100.00;101218.63;5096188;28;20040;-67
2022/11/11 07:06:03;;;;;;;37.90;6.72;;;;;;;15.23;100.00;101223.00;5109837;28;20035;-67
2022/11/11 07:08:29;;;;;;;44.05;6.72;;;;;;;15.04;100.00;101184.16;5101299;28;20031;-67
2022/11/11 07:10:55;;;;;;;37.45;6.70;;;;;;;15.26;100.00;101228.84;5080073;28;20438;-71
2022/11/11 07:13:20;;;;;;;37.65;6.80;;;;;;;15.24;100.00;101224.69;5093668;28;20471;-67
2022/11/11 07:15:46;;;;;;;36.13;5.65;;;;;;;14.88;100.00;101165.72;5097517;28;20023;-67
2022/11/11 07:18:12;;;;;;;49.58;8.25;;;;;;;15.28;100.00;101242.16;5095681;28;20035;-68
2022/11/11 07:20:38;;;;;;;43.53;7.40;;;;;;;15.35;100.00;101250.25;5095117;28;20166;-67
2022/11/11 07:23:07;;;;;;;40.55;6.80;;;;;;;15.39;100.00;101222.47;5078599;28;20050;-67
2022/11/11 07:25:32;;;;;;;38.28;6.80;;;;;;;15.22;100.00;101199.66;5098673;28;20065;-85
2022/11/11 07:27:58;;;;;;;37.90;7.03;;;;;;;15.39;100.00;101233.31;5067239;28;20118;-74
2022/11/11 07:30:24;;;;;;;39.15;6.63;;;;;;;15.47;100.00;101235.78;5083949;28;20055;-82
2022/11/11 07:32:51;;;;;;;51.78;7.60;;;;;;;15.38;100.00;101212.69;5082710;28;20170;-85
2022/11/11 07:35:18;;;;;;;34.78;6.30;;;;;;;15.44;100.00;101235.38;5104398;28;20089;-83
2022/11/11 07:37:44;;;;;;;45.58;7.05;;;;;;;15.46;100.00;101236.81;5104759;28;20024;-70
2022/11/11 07:40:12;;;;;;;43.63;7.55;;;;;;;15.57;100.00;101251.53;5098360;28;20031;-81
2022/11/11 07:42:57;;;;;;;36.78;7.00;;;;;;;15.57;100.00;101261.56;5088895;28;20039;-85
2022/11/11 07:45:22;;;;;;;41.92;7.25;;;;;;;15.63;100.00;101260.66;5052862;28;20040;-78
2022/11/11 07:47:48;;;;;;;38.42;7.63;;;;;;;15.63;100.00;101271.50;5040319;28;20045;-75
2022/11/11 07:50:13;;;;;;;37.28;7.40;;;;;;;15.63;100.00;101272.38;5065334;28;20403;-80
2022/11/11 07:52:40;;;;;;;42.83;7.15;;;;;;;15.68;100.00;101271.72;5047523;28;20033;-77
2022/11/11 07:55:05;;;;;;;37.13;7.05;;;;;;;15.67;100.00;101278.22;5063277;28;20109;-79
2022/11/11 07:57:31;;;;;;;45.67;7.68;;;;;;;15.66;100.00;101269.25;5053895;28;20072;-80
2022/11/11 07:59:56;;;;;;;33.88;6.07;;;;;;;15.73;100.00;101274.63;5035580;28;20060;-86
2022/11/11 08:02:22;;;;;;;36.97;7.05;;;;;;;15.73;100.00;101277.34;5049138;28;20040;-83
2022/11/11 08:04:49;;;;;;;45.65;7.75;;;;;;;15.72;100.00;101290.03;5037640;28;20053;-84
2022/11/11 08:07:14;;;;;;;42.70;6.85;;;;;;;15.77;100.00;101291.28;5059146;28;20040;-84
2022/11/11 08:09:39;;;;;;;40.45;6.30;;;;;;;15.83;100.00;101293.94;5018317;28;20033;-82
2022/11/11 08:14:49;;;;;;;35.60;6.30;;;;;;;15.67;100.00;101267.34;5050650;28;20574;-85
2022/11/11 08:17:20;;;;;;;39.38;6.72;;;;;;;15.85;100.00;101280.97;5066938;28;20131;-81
2022/11/11 08:19:45;;;;;;;37.67;6.43;;;;;;;15.83;100.00;101291.22;5072604;28;20116;-86
2022/11/11 08:22:11;;;;;;;40.55;7.10;;;;;;;15.84;100.00;101292.06;5078221;28;20119;-83
2022/11/11 08:24:36;;;;;;;37.72;6.47;;;;;;;15.78;100.00;101307.31;5084426;28;20219;-84
2022/11/11 08:27:02;;;;;;;36.83;6.43;;;;;;;15.77;100.00;101300.25;5085694;28;20574;-83
2022/11/11 08:29:27;;;;;;;34.92;6.07;;;;;;;15.86;100.00;101307.06;5077102;28;20044;-85
2022/11/11 08:31:52;;;;;;;43.00;7.38;;;;;;;15.88;100.00;101285.13;5090066;28;20032;-83
2022/11/11 08:34:18;;;;;;;40.97;7.15;;;;;;;15.91;100.00;101320.78;5061801;28;20115;-84
2022/11/11 08:36:43;;;;;;;34.30;5.97;;;;;;;15.86;100.00;101309.78;5082328;28;20036;-74
2022/11/11 08:39:08;;;;;;;33.35;6.00;;;;;;;15.91;100.00;101317.25;5086939;28;20089;-82
2022/11/11 08:41:34;;;;;;;35.17;5.53;;;;;;;15.87;100.00;101310.59;5076595;28;20035;-84
2022/11/11 08:43:59;;;;;;;27.35;5.32;;;;;;;15.81;100.00;101325.88;5072194;28;20043;-79
2022/11/11 08:46:25;;;;;;;36.78;6.25;;;;;;;15.93;100.00;101326.00;5079043;28;20050;-83
2022/11/11 08:48:51;;;;;;;32.55;5.65;;;;;;;15.81;100.00;101331.31;5080707;28;20526;-83
2022/11/11 08:51:16;;;;;;;31.02;5.80;;;;;;;15.93;100.00;101345.84;5058538;28;20042;-86
2022/11/11 08:53:42;;;;;;;30.38;6.22;;;;;;;15.88;100.00;101329.38;5071961;28;20360;-84
2022/11/11 08:56:07;;;;;;;33.80;5.85;;;;;;;15.86;100.00;101328.78;5070847;28;20032;-84
2022/11/11 08:58:33;;;;;;;35.58;6.25;;;;;;;15.90;100.00;101332.69;5081329;28;20032;-85
2022/11/11 09:01:00;;;;;;;24.30;5.60;;;;;;;15.91;100.00;101331.63;5085627;28;20058;-80
2022/11/11 09:03:26;;;;;;;38.20;6.72;;;;;;;15.84;100.00;101335.47;5099685;28;20032;-85
2022/11/11 09:05:51;;;;;;;35.78;6.28;;;;;;;15.85;100.00;101331.69;5095878;28;20055;-81
2022/11/11 09:08:17;;;;;;;31.83;5.95;;;;;;;15.96;100.00;101320.97;5085709;28;20039;-85
2022/11/11 09:10:42;;;;;;;34.05;5.82;;;;;;;15.87;100.00;101343.16;5092669;28;20473;-84
2022/11/11 09:13:08;;;;;;;42.20;6.40;;;;;;;15.76;100.00;101317.59;5092766;28;20031;-67
2022/11/11 09:15:33;;;;;;;26.15;4.78;;;;;;;15.97;100.00;101344.31;5074587;28;20093;-80
2022/11/11 09:18:00;;;;;;;31.45;5.47;;;;;;;15.90;100.00;101342.72;5078251;28;20019;-85
2022/11/11 09:20:25;;;;;;;30.23;5.32;;;;;;;16.02;100.00;101364.53;5104457;28;20118;-83
2022/11/11 09:22:54;;;;;;;33.58;5.82;;;;;;;16.03;100.00;101363.50;5098252;28;20111;-84
2022/11/11 09:25:22;;;;;;;32.72;5.93;;;;;;;16.02;100.00;101378.13;5104389;28;20131;-79
2022/11/11 09:27:56;;;;;;;36.72;6.70;;;;;;;16.08;100.00;101374.53;5074896;28;20039;-81
2022/11/11 09:30:22;;;;;;;27.50;5.18;;;;;;;16.05;100.00;101372.25;5092432;28;20028;-78
2022/11/11 09:32:48;;;;;;;27.85;5.53;;;;;;;16.06;100.00;101387.47;5088410;28;20027;-82
2022/11/11 09:35:13;;;;;;;34.50;5.97;;;;;;;16.08;100.00;101393.53;5094145;28;20031;-79
2022/11/11 09:37:38;;;;;;;40.17;7.28;;;;;;;16.13;100.00;101389.09;5094621;28;20616;-85
2022/11/11 09:40:04;;;;;;;37.13;6.90;;;;;;;15.94;100.00;101352.91;5093194;28;20020;-86
2022/11/11 09:42:46;;;;;;;31.67;6.13;;;;;;;16.11;100.00;101388.47;5057894;28;20036;-85
2022/11/11 09:45:19;;;;;;;34.70;6.00;;;;;;;16.17;100.00;101375.91;5083630;28;20028;-81
2022/11/11 09:47:53;;;;;;;36.67;6.75;;;;;;;16.11;100.00;101388.47;5092232;28;20024;-73
2022/11/11 09:50:28;;;;;;;37.65;6.68;;;;;;;16.06;100.00;101369.31;5094418;28;20024;-81
2022/11/11 09:53:24;;;;;;;44.83;6.07;;;;;;;16.15;100.00;101392.41;5102456;28;20073;-80
2022/11/11 09:55:57;;;;;;;48.97;7.13;;;;;;;16.16;100.00;101376.97;5074418;28;20444;-85
2022/11/11 09:58:45;;;;;;;43.60;6.32;;;;;;;16.19;100.00;101387.34;5070940;28;20076;-80
2022/11/11 10:01:25;;;;;;;43.38;7.30;;;;;;;16.17;100.00;101386.78;5093564;28;20056;-82
2022/11/11 10:04:03;;;;;;;41.28;6.13;;;;;;;16.17;100.00;101389.50;5086544;28;20043;-83
2022/11/11 10:06:32;;;;;;;47.47;7.22;;;;;;;16.12;100.00;101392.84;5095944;28;20280;-83
2022/11/11 10:09:18;;;;;;;38.58;6.38;;;;;;;16.15;100.00;101389.69;5100578;28;20103;-79
2022/11/11 10:11:58;;;;;;;44.17;6.50;;;;;;;16.25;100.00;101420.94;5098818;28;20024;-72
2022/11/11 10:14:32;;;;;;;35.17;6.78;;;;;;;16.23;100.00;101423.91;5098102;28;20115;-77
2022/11/11 10:17:16;;;;;;;40.33;6.57;;;;;;;16.20;100.00;101430.59;5087677;28;20367;-75
2022/11/11 10:20:02;;;;;;;33.63;6.40;;;;;;;16.23;100.00;101423.06;5094700;28;20267;-72
2022/11/11 10:22:33;;;;;;;37.28;6.25;;;;;;;16.28;100.00;101423.22;5089446;28;20047;-84
2022/11/11 10:25:11;;;;;;;44.80;7.03;;;;;;;16.28;100.00;101428.66;5073684;28;20031;-81
2022/11/11 10:27:40;;;;;;;39.45;6.38;;;;;;;16.08;100.00;101396.25;5091923;28;20101;-84
2022/11/11 10:30:19;;;;;;;40.58;7.93;;;;;;;16.26;100.00;101418.03;5092495;28;20032;-76
2022/11/11 10:32:48;;;;;;;37.95;6.35;;;;;;;16.34;100.00;101436.75;5092372;28;20539;-80
2022/11/11 10:35:19;;;;;;;38.20;6.70;;;;;;;16.28;100.00;101417.78;5092752;28;20035;-78
2022/11/11 10:37:44;;;;;;;44.20;6.88;;;;;;;16.37;100.00;101449.06;5095958;28;20027;-86
2022/11/11 10:40:21;;;;;;;38.92;6.28;;;;;;;16.36;100.00;101444.69;5097933;28;20020;-83
2022/11/11 10:42:50;;;;;;;38.63;6.53;;;;;;;16.26;100.00;101422.59;5074014;28;20039;-84
2022/11/11 10:45:50;;;;;;;38.67;5.85;;;;;;;16.35;100.00;101441.13;5092087;28;20024;-80
2022/11/11 10:48:22;;;;;;;33.60;6.22;;;;;;;16.43;100.00;101448.19;5064226;28;20031;-82
2022/11/11 10:50:55;;;;;;;37.58;6.22;;;;;;;16.47;100.00;101438.53;5083250;28;20040;-83
2022/11/11 10:53:31;;;;;;;42.33;7.10;;;;;;;16.37;100.00;101446.34;5105894;28;20523;-85
2022/11/11 10:56:13;;;;;;;34.10;6.70;;;;;;;16.46;100.00;101453.16;5093979;28;20027;-86
2022/11/11 10:58:44;;;;;;;41.15;6.28;;;;;;;16.41;100.00;101423.94;5084393;28;20390;-85
2022/11/11 11:01:14;;;;;;;44.03;6.25;;;;;;;16.45;100.00;101421.59;5104521;28;20044;-84
2022/11/11 11:03:44;;;;;;;40.88;7.43;;;;;;;16.44;100.00;101418.06;5094384;28;20035;-83
2022/11/11 11:06:19;;;;;;;40.47;6.78;;;;;;;16.42;100.00;101409.31;5093141;28;20028;-80
2022/11/11 11:09:01;;;;;;;39.75;6.55;;;;;;;16.44;100.00;101418.06;5091753;28;20172;-74
2022/11/11 11:11:42;;;;;;;36.42;6.72;;;;;;;16.43;100.00;101430.00;5071115;28;20032;-84
2022/11/11 11:14:49;;;;;;;40.70;6.97;;;;;;;16.34;100.00;101415.03;5092832;28;20028;-85
2022/11/11 11:17:23;;;;;;;35.38;6.63;;;;;;;16.43;100.00;101440.84;5033444;28;20033;-85
2022/11/11 11:20:19;;;;;;;33.85;5.63;;;;;;;16.39;100.00;101442.34;5043740;28;20060;-84
2022/11/11 11:22:48;;;;;;;38.30;6.47;;;;;;;16.29;100.00;101439.31;5050894;28;20650;-73
2022/11/11 11:25:17;;;;;;;36.95;6.13;;;;;;;16.25;100.00;101456.25;5045789;28;20482;-78
2022/11/11 11:27:43;;;;;;;33.60;5.88;;;;;;;16.19;100.00;101439.81;5050095;28;20404;-77
2022/11/11 11:30:13;;;;;;;33.92;5.85;;;;;;;16.32;100.00;101438.84;5047509;28;20032;-86
2022/11/11 11:32:41;;;;;;;35.22;5.93;;;;;;;16.36;100.00;101442.81;5057369;28;20525;-85
2022/11/11 11:35:06;;;;;;;35.88;6.07;;;;;;;16.43;100.00;101438.13;5056128;28;20049;-85
2022/11/11 11:37:48;;;;;;;34.65;5.50;;;;;;;16.53;100.00;101429.50;5021915;28;20045;-85
2022/11/11 11:40:14;;;;;;;36.75;6.18;;;;;;;16.49;100.00;101430.13;5040327;28;20056;-76
2022/11/11 11:42:39;;;;;;;37.10;5.88;;;;;;;16.44;100.00;101434.34;5054145;28;20069;-82
2022/11/11 11:45:28;;;;;;;35.33;6.63;;;;;;;16.48;100.00;101452.94;5035235;28;20076;-83
2022/11/11 11:48:22;;;;;;;39.00;6.28;;;;;;;16.57;100.00;101440.72;5083637;28;20035;-83
2022/11/11 11:50:51;;;;;;;37.78;7.07;;;;;;;16.62;100.00;101440.88;5094946;28;20032;-77
2022/11/11 11:53:28;;;;;;;42.70;6.05;;;;;;;16.57;100.00;101432.59;5094699;28;20044;-86
2022/11/11 11:56:07;;;;;;;32.47;5.82;;;;;;;16.57;100.00;101448.88;5093922;28;20032;-85
2022/11/11 11:59:01;;;;;;;33.13;5.50;;;;;;;16.59;100.00;101441.34;5094211;28;20138;-84
2022/11/11 12:01:43;;;;;;;36.00;5.93;;;;;;;16.54;100.00;101435.75;5050890;28;20053;-81
2022/11/11 12:04:29;;;;;;;36.42;6.03;;;;;;;16.55;100.00;101459.13;5034732;28;20353;-85
2022/11/11 12:06:54;;;;;;;31.38;5.57;;;;;;;16.47;100.00;101470.28;5004919;28;20036;-80
2022/11/11 12:09:38;;;;;;;36.33;6.32;;;;;;;16.58;100.00;101464.94;5051256;28;20550;-84
2022/11/11 12:12:06;;;;;;;38.97;6.25;;;;;;;16.53;100.00;101469.41;5048439;28;20067;-81
2022/11/11 12:14:49;;;;;;;31.42;5.32;;;;;;;16.44;100.00;101466.13;5022015;28;20028;-78
2022/11/11 12:17:48;;;;;;;33.78;5.35;;;;;;;16.52;100.00;101456.84;5050777;28;20049;-85
2022/11/11 12:20:19;;;;;;;29.85;5.13;;;;;;;16.51;100.00;101466.91;5048259;28;20442;-77
2022/11/11 12:23:10;;;;;;;28.98;4.88;;;;;;;16.44;100.00;101464.25;5050773;28;20051;-82
2022/11/11 12:26:01;;;;;;;32.40;5.50;;;;;;;16.52;100.00;101465.00;5034375;28;20036;-85
2022/11/11 12:28:48;;;;;;;31.70;5.53;;;;;;;16.54;100.00;101476.50;5051042;28;20045;-81
2022/11/11 12:31:13;;;;;;;34.17;5.50;;;;;;;16.46;100.00;101488.47;5052526;28;20039;-82
2022/11/11 12:34:06;;;;;;;29.85;4.75;;;;;;;16.49;100.00;101495.34;5077838;28;20053;-81
2022/11/11 12:36:31;;;;;;;29.50;5.15;;;;;;;16.50;100.00;101500.56;5106134;28;20039;-81
2022/11/11 12:39:19;;;;;;;33.63;5.40;;;;;;;16.52;100.00;101493.00;5075403;28;20403;-85